createdAt,value
2023-10-10T00:01:44.561Z,11.57
2023-10-10T00:04:13.324Z,13.65
2023-10-10T00:06:43.026Z,12.95
2023-10-10T00:09:11.680Z,18.52
2023-10-10T00:11:41.842Z,18.25
2023-10-10T00:14:18.815Z,13.60
2023-10-10T00:16:49.092Z,17.45
2023-10-10T00:19:22.740Z,13.38
2023-10-10T00:21:51.635Z,21.38
2023-10-10T00:24:22.042Z,15.02
2023-10-10T00:26:50.243Z,15.88
2023-10-10T00:29:24.057Z,13.30
2023-10-10T00:34:35.093Z,19.48
2023-10-10T00:37:09.056Z,24.77
2023-10-10T00:39:38.182Z,20.75
2023-10-10T00:42:09.071Z,20.95
2023-10-10T00:44:39.727Z,22.70
2023-10-10T00:47:27.195Z,21.45
2023-10-10T00:49:56.493Z,19.42
2023-10-10T00:52:24.862Z,24.23
2023-10-10T00:54:54.018Z,15.93
2023-10-10T00:57:22.442Z,22.17
2023-10-10T00:59:55.842Z,21.77
2023-10-10T01:02:25.023Z,19.95
2023-10-10T01:04:58.680Z,15.18
2023-10-10T01:07:28.141Z,20.42
2023-10-10T01:09:59.526Z,21.25
2023-10-10T01:12:29.981Z,21.67
2023-10-10T01:15:01.731Z,18.10
2023-10-10T01:17:34.171Z,20.13
2023-10-10T01:20:19.114Z,21.75
2023-10-10T01:22:50.223Z,19.13
2023-10-10T01:25:42.375Z,15.60
2023-10-10T01:28:24.566Z,28.95
2023-10-10T01:31:00.040Z,20.70
2023-10-10T01:33:37.313Z,19.35
2023-10-10T01:36:12.979Z,21.15
2023-10-10T01:39:09.559Z,16.75
2023-10-10T01:41:40.658Z,17.25
2023-10-10T01:44:13.284Z,15.68
2023-10-10T01:46:42.747Z,15.57
2023-10-10T01:49:15.856Z,18.88
2023-10-10T01:51:45.004Z,12.68
2023-10-10T01:54:16.480Z,21.70
2023-10-10T01:56:45.296Z,15.07
2023-10-10T01:59:19.797Z,14.32
2023-10-10T02:01:48.705Z,41.33
2023-10-10T02:04:22.949Z,24.13
2023-10-10T02:06:57.779Z,23.67
2023-10-10T02:09:35.016Z,16.80
2023-10-10T02:12:17.964Z,22.02
2023-10-10T02:14:46.447Z,14.82
2023-10-10T02:17:27.675Z,18.63
2023-10-10T02:19:59.919Z,13.07
2023-10-10T02:22:48.755Z,17.77
2023-10-10T02:37:56.366Z,25.55
2023-10-10T02:40:32.255Z,22.58
2023-10-10T02:43:20.631Z,34.47
2023-10-10T02:45:48.783Z,19.52
2023-10-10T02:48:22.135Z,22.13
2023-10-10T02:50:52.784Z,23.98
2023-10-10T02:53:25.136Z,41.55
2023-10-10T02:55:53.297Z,42.80
2023-10-10T02:58:23.282Z,33.20
2023-10-10T03:00:52.157Z,25.08
2023-10-10T03:03:21.052Z,36.53
2023-10-10T03:05:56.428Z,30.33
2023-10-10T03:08:35.653Z,33.78
2023-10-10T03:11:15.979Z,26.10
2023-10-10T03:13:49.391Z,23.58
2023-10-10T03:16:42.600Z,37.60
2023-10-10T03:19:28.876Z,29.25
2023-10-10T03:22:13.198Z,24.75
2023-10-10T03:25:06.481Z,36.15
2023-10-10T03:27:55.762Z,29.65
2023-10-10T03:30:36.079Z,36.97
2023-10-10T03:33:17.976Z,25.83
2023-10-10T03:36:00.801Z,27.73
2023-10-10T03:38:46.921Z,31.27
2023-10-10T03:41:42.974Z,36.85
2023-10-10T03:44:28.678Z,35.17
2023-10-10T03:47:14.113Z,35.72
2023-10-10T03:49:59.747Z,38.92
2023-10-10T03:52:47.233Z,27.98
2023-10-10T03:55:33.176Z,22.63
2023-10-10T03:58:20.347Z,24.42
2023-10-10T04:01:05.975Z,34.30
2023-10-10T04:03:56.661Z,36.63
2023-10-10T04:06:42.546Z,26.35
2023-10-10T04:09:28.186Z,35.67
2023-10-10T04:12:13.854Z,28.60
2023-10-10T04:15:00.563Z,25.85
2023-10-10T04:17:46.022Z,32.70
2023-10-10T04:20:28.079Z,24.85
2023-10-10T04:23:14.313Z,35.00
2023-10-10T04:25:59.772Z,25.42
2023-10-10T04:28:45.401Z,30.67
2023-10-10T04:31:32.156Z,29.52
2023-10-10T04:34:17.815Z,27.38
2023-10-10T04:37:03.283Z,28.83
2023-10-10T04:39:48.857Z,29.33
2023-10-10T04:42:34.401Z,31.85
2023-10-10T04:45:20.062Z,26.48
2023-10-10T04:48:07.342Z,36.17
2023-10-10T04:50:52.811Z,24.05
2023-10-10T04:53:38.583Z,26.83
2023-10-10T04:56:24.331Z,30.40
2023-10-10T04:59:09.790Z,23.77
2023-10-10T05:01:55.460Z,27.50
2023-10-10T05:04:42.646Z,29.17
2023-10-10T05:07:28.363Z,35.20
2023-10-10T05:10:14.184Z,32.88
2023-10-10T05:12:59.845Z,30.08
2023-10-10T05:16:00.112Z,27.52
2023-10-10T05:18:50.642Z,38.08
2023-10-10T05:21:38.039Z,30.50
2023-10-10T05:24:10.238Z,44.25
2023-10-10T05:26:47.582Z,44.53
2023-10-10T05:29:20.630Z,47.38
2023-10-10T05:31:49.187Z,45.45
2023-10-10T05:34:17.354Z,31.13
2023-10-10T05:36:47.015Z,41.38
2023-10-10T05:39:19.077Z,38.05
2023-10-10T05:41:48.574Z,45.65
2023-10-10T05:44:20.095Z,36.13
2023-10-10T05:46:48.849Z,34.50
2023-10-10T05:49:16.973Z,28.38
2023-10-10T05:51:46.456Z,36.50
2023-10-10T05:54:14.706Z,44.38
2023-10-10T05:56:42.983Z,35.35
2023-10-10T05:59:11.240Z,44.38
2023-10-10T06:01:39.851Z,45.85
2023-10-10T06:04:09.219Z,33.83
2023-10-10T06:06:38.355Z,58.22
2023-10-10T06:09:19.796Z,42.60
2023-10-10T06:11:48.205Z,50.72
2023-10-10T06:14:16.696Z,54.38
2023-10-10T06:16:45.624Z,51.50
2023-10-10T06:19:21.941Z,44.83
2023-10-10T06:21:51.181Z,37.83
2023-10-10T06:24:20.619Z,57.45
2023-10-10T06:26:50.658Z,38.70
2023-10-10T06:29:19.272Z,34.83
2023-10-10T06:31:47.762Z,36.88
2023-10-10T06:34:23.450Z,31.45
2023-10-10T06:36:53.721Z,35.10
2023-10-10T06:39:33.754Z,35.55
2023-10-10T06:42:04.989Z,42.50
2023-10-10T06:44:41.410Z,35.35
2023-10-10T06:47:13.659Z,31.33
2023-10-10T06:49:58.459Z,34.60
2023-10-10T06:52:29.544Z,37.80
2023-10-10T06:54:59.570Z,43.20
2023-10-10T06:57:44.498Z,34.13
2023-10-10T07:00:32.737Z,38.88
2023-10-10T07:03:01.424Z,34.38
2023-10-10T07:05:34.606Z,25.10
2023-10-10T07:08:13.866Z,29.48
2023-10-10T07:10:44.272Z,33.47
2023-10-10T07:13:18.962Z,33.20
2023-10-10T07:15:52.621Z,25.70
2023-10-10T07:18:24.626Z,28.85
2023-10-10T07:21:09.436Z,21.83
2023-10-10T07:26:32.010Z,22.70
2023-10-10T07:29:23.590Z,19.83
2023-10-10T07:32:06.262Z,34.28
2023-10-10T07:34:40.132Z,19.63
2023-10-10T07:37:18.796Z,22.60
2023-10-10T07:40:09.856Z,25.20
2023-10-10T07:42:39.356Z,24.48
2023-10-10T07:45:15.347Z,26.75
2023-10-10T07:47:58.242Z,29.67
2023-10-10T07:50:28.220Z,23.55
2023-10-10T07:52:56.932Z,32.03
2023-10-10T07:55:25.230Z,21.25
2023-10-10T07:58:00.910Z,22.10
2023-10-10T08:00:37.281Z,21.35
2023-10-10T08:03:06.843Z,24.00
2023-10-10T08:05:35.153Z,24.58
2023-10-10T08:08:05.949Z,21.50
2023-10-10T08:10:39.733Z,17.10
2023-10-10T08:13:11.468Z,18.85
2023-10-10T08:15:51.690Z,20.50
2023-10-10T08:18:40.341Z,26.08
2023-10-10T08:21:10.242Z,22.27
2023-10-10T08:23:44.119Z,30.73
2023-10-10T08:26:19.318Z,24.52
2023-10-10T08:28:50.309Z,20.38
2023-10-10T08:31:19.034Z,24.63
2023-10-10T08:33:47.680Z,20.15
2023-10-10T08:36:26.293Z,18.05
2023-10-10T08:38:56.161Z,23.80
2023-10-10T08:41:27.671Z,16.92
2023-10-10T08:44:02.494Z,20.77
2023-10-10T08:46:32.423Z,21.80
2023-10-10T08:49:01.864Z,12.57
2023-10-10T08:51:34.774Z,13.02
2023-10-10T08:54:03.713Z,11.65
2023-10-10T08:56:38.776Z,12.60
2023-10-10T08:59:09.789Z,11.05
2023-10-10T09:01:38.128Z,9.70
2023-10-10T09:04:14.823Z,11.57
2023-10-10T09:06:46.841Z,11.65
2023-10-10T09:09:34.813Z,13.32
2023-10-10T09:12:04.859Z,14.40
2023-10-10T09:14:44.861Z,8.95
2023-10-10T09:17:29.682Z,9.45
2023-10-10T09:19:59.275Z,9.98
2023-10-10T09:22:35.307Z,23.35
2023-10-10T09:25:19.426Z,9.68
2023-10-10T09:28:00.122Z,9.05
2023-10-10T09:30:33.545Z,9.00
2023-10-10T09:33:14.259Z,17.58
2023-10-10T09:35:50.830Z,10.20
2023-10-10T09:38:21.911Z,16.38
2023-10-10T09:41:11.498Z,8.07
2023-10-10T09:44:02.137Z,7.30
2023-10-10T09:46:59.903Z,7.22
2023-10-10T09:49:41.363Z,7.97
2023-10-10T09:52:31.521Z,12.55
2023-10-10T09:55:08.837Z,15.88
2023-10-10T09:57:41.006Z,6.90
2023-10-10T10:00:27.243Z,4.88
2023-10-10T10:03:33.060Z,7.22
2023-10-10T10:06:27.939Z,6.38
2023-10-10T10:11:57.176Z,7.35
2023-10-10T10:14:30.110Z,7.72
2023-10-10T10:17:15.875Z,8.20
2023-10-10T10:19:49.782Z,8.63
2023-10-10T10:22:19.667Z,9.18
2023-10-10T10:25:30.326Z,12.23
2023-10-10T10:28:11.479Z,7.50
2023-10-10T10:30:52.544Z,9.13
2023-10-10T10:33:25.444Z,11.40
2023-10-10T10:36:17.742Z,11.35
2023-10-10T10:42:13.269Z,12.77
2023-10-10T10:44:54.713Z,13.15
2023-10-10T10:47:47.122Z,13.38
2023-10-10T10:50:43.912Z,14.80
2023-10-10T10:53:42.380Z,16.80
2023-10-10T10:56:28.196Z,19.92
2023-10-10T10:59:29.261Z,19.00
2023-10-10T11:02:30.453Z,18.00
2023-10-10T11:04:59.696Z,21.58
2023-10-10T11:07:42.244Z,20.15
2023-10-10T11:10:12.372Z,19.65
2023-10-10T11:12:41.920Z,20.27
2023-10-10T11:15:12.867Z,24.75
2023-10-10T11:17:41.988Z,25.23
2023-10-10T11:20:38.644Z,26.02
2023-10-10T11:23:13.132Z,25.80
2023-10-10T11:25:47.899Z,23.92
2023-10-10T11:28:26.153Z,27.38
2023-10-10T11:30:59.696Z,30.35
2023-10-10T11:33:47.490Z,32.25
2023-10-10T11:36:30.275Z,34.80
2023-10-10T11:39:17.580Z,35.30
2023-10-10T11:41:47.755Z,36.60
2023-10-10T11:44:21.749Z,38.40
2023-10-10T11:46:57.376Z,36.28
2023-10-10T11:49:26.941Z,30.23
2023-10-10T11:51:55.053Z,25.85
2023-10-10T11:54:26.657Z,35.15
2023-10-10T11:56:56.341Z,35.03
2023-10-10T11:59:24.564Z,30.27
2023-10-10T12:01:55.769Z,28.88
2023-10-10T12:04:33.115Z,33.80
2023-10-10T12:07:06.119Z,22.05
2023-10-10T12:09:35.021Z,23.40
2023-10-10T12:12:05.259Z,19.95
2023-10-10T12:14:34.007Z,14.02
2023-10-10T12:17:06.787Z,21.30
2023-10-10T12:19:39.054Z,14.88
2023-10-10T12:22:11.957Z,19.80
2023-10-10T12:24:41.706Z,22.65
2023-10-10T12:27:11.504Z,16.83
2023-10-10T12:29:43.370Z,21.55
2023-10-10T12:32:20.440Z,20.17
2023-10-10T12:34:49.650Z,14.90
2023-10-10T12:37:18.050Z,21.33
2023-10-10T12:39:47.248Z,17.88
2023-10-10T12:42:16.815Z,16.45
2023-10-10T12:44:49.578Z,16.23
2023-10-10T12:47:19.519Z,24.80
2023-10-10T12:49:47.845Z,24.00
2023-10-10T12:52:18.722Z,21.27
2023-10-10T12:54:58.367Z,18.83
2023-10-10T12:57:33.696Z,21.70
2023-10-10T13:00:23.381Z,23.08
2023-10-10T13:02:54.663Z,20.60
2023-10-10T13:05:28.422Z,24.98
2023-10-10T13:08:00.092Z,24.73
2023-10-10T13:10:31.841Z,24.25
2023-10-10T13:13:03.573Z,24.38
2023-10-10T13:15:48.004Z,25.13
2023-10-10T13:18:21.830Z,22.48
2023-10-10T13:20:51.998Z,28.83
2023-10-10T13:23:20.872Z,34.75
2023-10-10T13:25:50.066Z,32.88
2023-10-10T13:28:21.781Z,30.40
2023-10-10T13:30:50.157Z,30.05
2023-10-10T13:33:21.392Z,29.10
2023-10-10T13:35:50.070Z,33.17
2023-10-10T13:38:18.412Z,32.83
2023-10-10T13:40:47.305Z,32.60
2023-10-10T13:43:19.046Z,32.05
2023-10-10T13:45:50.292Z,33.38
2023-10-10T13:48:19.593Z,26.33
2023-10-10T13:50:48.801Z,32.03
2023-10-10T13:53:17.297Z,30.90
2023-10-10T13:55:46.939Z,35.38
2023-10-10T13:58:17.822Z,33.55
2023-10-10T14:00:56.441Z,38.60
2023-10-10T14:03:31.270Z,40.10
2023-10-10T14:06:04.925Z,43.38
2023-10-10T14:08:33.394Z,40.25
2023-10-10T14:11:01.878Z,39.35
2023-10-10T14:13:30.284Z,39.00
2023-10-10T14:16:00.044Z,43.45
2023-10-10T14:18:30.018Z,44.13
2023-10-10T14:21:02.337Z,43.25
2023-10-10T14:23:36.755Z,41.47
2023-10-10T14:26:14.168Z,39.58
2023-10-10T14:28:43.556Z,46.35
2023-10-10T14:31:14.301Z,45.90
2023-10-10T14:33:42.799Z,46.92
2023-10-10T14:36:13.581Z,45.17
2023-10-10T14:38:45.986Z,40.25
2023-10-10T14:41:18.066Z,46.75
2023-10-10T14:43:49.269Z,39.90
2023-10-10T14:46:22.907Z,39.30
2023-10-10T14:48:52.917Z,41.28
2023-10-10T14:51:21.900Z,37.70
2023-10-10T14:53:53.321Z,38.85
2023-10-10T14:56:35.273Z,36.30
2023-10-10T14:59:05.106Z,38.30
2023-10-10T15:01:35.961Z,41.00
2023-10-10T15:04:05.821Z,40.90
2023-10-10T15:06:34.896Z,36.25
2023-10-10T15:09:03.590Z,35.92
2023-10-10T15:11:32.058Z,36.50
2023-10-10T15:14:01.038Z,38.33
2023-10-10T15:16:36.230Z,32.72
2023-10-10T15:19:07.904Z,29.80
2023-10-10T15:21:36.579Z,38.35
2023-10-10T15:24:06.176Z,30.40
2023-10-10T15:26:35.854Z,31.98
2023-10-10T15:29:04.734Z,27.15
2023-10-10T15:31:34.328Z,24.52
2023-10-10T15:34:02.668Z,26.27
2023-10-10T15:36:32.406Z,26.88
2023-10-10T15:39:05.188Z,26.63
2023-10-10T15:41:35.431Z,27.98
2023-10-10T15:44:03.931Z,25.48
2023-10-10T15:46:35.167Z,24.58
2023-10-10T15:49:04.642Z,23.45
2023-10-10T15:51:37.126Z,25.42
2023-10-10T15:54:06.370Z,24.40
2023-10-10T15:56:34.560Z,22.13
2023-10-10T15:59:03.150Z,18.88
2023-10-10T16:01:32.917Z,21.77
2023-10-10T16:04:06.504Z,33.65
2023-10-10T16:06:37.331Z,23.67
2023-10-10T16:09:20.827Z,20.35
2023-10-10T16:11:53.850Z,27.47
2023-10-10T16:14:22.745Z,25.13
2023-10-10T16:16:51.558Z,27.23
2023-10-10T16:19:22.042Z,22.90
2023-10-10T16:21:52.447Z,21.27
2023-10-10T16:24:20.865Z,21.73
2023-10-10T16:26:50.250Z,23.73
2023-10-10T16:29:20.929Z,20.10
2023-10-10T16:31:50.422Z,21.40
2023-10-10T16:34:18.885Z,23.05
2023-10-10T16:36:49.180Z,21.20
2023-10-10T16:39:24.536Z,20.50
2023-10-10T16:41:52.644Z,19.33
2023-10-10T16:44:22.233Z,20.50
2023-10-10T16:46:50.947Z,20.27
2023-10-10T16:49:21.063Z,20.23
2023-10-10T16:51:49.221Z,20.60
2023-10-10T16:54:20.282Z,15.88
2023-10-10T16:56:48.643Z,24.83
2023-10-10T16:59:17.148Z,21.73
2023-10-10T17:01:45.483Z,16.55
2023-10-10T17:04:13.988Z,22.10
2023-10-10T17:06:42.193Z,16.27
2023-10-10T17:09:11.475Z,22.98
2023-10-10T17:11:40.958Z,18.17
2023-10-10T17:14:09.150Z,18.65
2023-10-10T17:16:37.386Z,20.63
2023-10-10T17:19:16.934Z,18.08
2023-10-10T17:21:48.447Z,19.48
2023-10-10T17:24:19.864Z,14.82
2023-10-10T17:26:49.674Z,16.45
2023-10-10T17:29:18.029Z,19.67
2023-10-10T17:31:46.738Z,18.08
2023-10-10T17:34:17.051Z,15.38
2023-10-10T17:36:45.882Z,15.80
2023-10-10T17:39:16.761Z,13.20
2023-10-10T17:41:48.929Z,14.20
2023-10-10T17:44:20.110Z,14.50
2023-10-10T17:46:49.103Z,13.98
2023-10-10T17:49:17.394Z,13.77
2023-10-10T17:51:46.476Z,12.75
2023-10-10T17:54:17.169Z,14.40
2023-10-10T17:56:46.826Z,13.75
2023-10-10T17:59:17.974Z,14.77
2023-10-10T18:01:47.872Z,11.65
2023-10-10T18:04:16.626Z,12.40
2023-10-10T18:06:45.749Z,9.88
2023-10-10T18:09:18.441Z,13.20
2023-10-10T18:11:49.729Z,11.43
2023-10-10T18:14:19.283Z,12.70
2023-10-10T18:16:50.611Z,12.45
2023-10-10T18:19:19.709Z,15.50
2023-10-10T18:21:48.135Z,12.65
2023-10-10T18:24:16.216Z,15.00
2023-10-10T18:26:44.425Z,13.27
2023-10-10T18:29:12.591Z,18.02
2023-10-10T18:31:40.778Z,13.82
2023-10-10T18:34:14.517Z,10.73
2023-10-10T18:36:42.976Z,13.38
2023-10-10T18:39:14.890Z,11.70
2023-10-10T18:41:43.904Z,10.57
2023-10-10T18:44:12.911Z,15.35
2023-10-10T18:46:44.390Z,15.77
2023-10-10T18:49:15.574Z,12.93
2023-10-10T18:51:44.596Z,15.02
2023-10-10T18:54:13.699Z,12.60
2023-10-10T18:56:42.173Z,12.95
2023-10-10T18:59:10.606Z,11.18
2023-10-10T19:01:42.465Z,15.10
2023-10-10T19:04:11.908Z,14.90
2023-10-10T19:06:41.528Z,11.05
2023-10-10T19:09:12.473Z,16.65
2023-10-10T19:11:41.222Z,12.25
2023-10-10T19:14:11.763Z,19.40
2023-10-10T19:16:40.108Z,13.95
2023-10-10T19:19:08.704Z,14.05
2023-10-10T19:21:37.332Z,14.43
2023-10-10T19:24:08.440Z,16.30
2023-10-10T19:26:37.400Z,11.82
2023-10-10T19:29:08.262Z,12.77
2023-10-10T19:31:41.635Z,17.15
2023-10-10T19:34:11.978Z,17.25
2023-10-10T19:36:40.362Z,12.60
2023-10-10T19:39:11.034Z,14.43
2023-10-10T19:41:40.232Z,12.98
2023-10-10T19:44:09.048Z,13.68
2023-10-10T19:46:37.233Z,12.25
2023-10-10T19:49:06.437Z,12.07
2023-10-10T19:51:34.727Z,11.35
2023-10-10T19:54:02.911Z,15.52
2023-10-10T19:56:32.469Z,14.63
2023-10-10T19:59:00.785Z,16.58
2023-10-10T20:01:29.072Z,14.70
2023-10-10T20:03:57.739Z,14.05
2023-10-10T20:06:26.040Z,12.88
2023-10-10T20:08:54.457Z,13.48
2023-10-10T20:11:23.606Z,14.13
2023-10-10T20:13:53.475Z,19.15
2023-10-10T20:16:26.709Z,15.10
2023-10-10T20:18:58.884Z,15.77
2023-10-10T20:21:27.982Z,15.68
2023-10-10T20:23:56.598Z,17.20
2023-10-10T20:26:26.808Z,12.77
2023-10-10T20:28:56.383Z,14.90
2023-10-10T20:31:24.531Z,18.05
2023-10-10T20:33:52.789Z,13.55
2023-10-10T20:36:21.183Z,16.42
2023-10-10T20:38:51.724Z,13.80
2023-10-10T20:41:20.421Z,18.10
2023-10-10T20:43:48.595Z,24.30
2023-10-10T20:46:20.644Z,14.38
2023-10-10T20:48:49.262Z,13.82
2023-10-10T20:51:17.581Z,14.43
2023-10-10T20:53:46.898Z,14.63
2023-10-10T20:56:34.494Z,13.43
2023-10-10T20:59:02.644Z,15.90
2023-10-10T21:01:32.153Z,13.30
2023-10-10T21:04:00.682Z,12.77
2023-10-10T21:06:28.806Z,12.52
2023-10-10T21:08:57.113Z,13.10
2023-10-10T21:11:25.321Z,14.23
2023-10-10T21:13:53.467Z,11.75
2023-10-10T21:16:21.620Z,13.32
2023-10-10T21:18:51.369Z,13.73
2023-10-10T21:21:22.976Z,14.85
2023-10-10T21:23:53.342Z,16.20
2023-10-10T21:26:21.529Z,14.00
2023-10-10T21:28:49.974Z,19.33
2023-10-10T21:31:19.071Z,13.07
2023-10-10T21:33:47.449Z,16.98
2023-10-10T21:36:16.961Z,15.55
2023-10-10T21:38:46.102Z,11.32
2023-10-10T21:41:16.353Z,13.98
2023-10-10T21:43:44.474Z,11.88
2023-10-10T21:46:12.577Z,13.88
2023-10-10T21:48:42.158Z,14.32
2023-10-10T21:51:10.522Z,12.70
2023-10-10T21:53:39.979Z,13.48
2023-10-10T21:56:08.529Z,15.25
2023-10-10T21:58:39.705Z,12.32
2023-10-10T22:01:11.537Z,12.48
2023-10-10T22:03:43.666Z,11.90
2023-10-10T22:06:12.374Z,13.70
2023-10-10T22:08:43.609Z,14.60
2023-10-10T22:11:12.996Z,12.93
2023-10-10T22:13:41.504Z,12.25
2023-10-10T22:16:11.569Z,12.95
2023-10-10T22:18:40.067Z,12.77
2023-10-10T22:21:11.979Z,10.18
2023-10-10T22:23:43.689Z,13.73
2023-10-10T22:26:11.919Z,12.07
2023-10-10T22:28:40.407Z,10.48
2023-10-10T22:31:15.134Z,14.73
2023-10-10T22:33:43.462Z,11.95
2023-10-10T22:36:15.775Z,11.98
2023-10-10T22:38:46.711Z,13.10
2023-10-10T22:41:15.234Z,12.00
2023-10-10T22:43:45.319Z,14.02
2023-10-10T22:46:13.874Z,17.13
2023-10-10T22:48:43.971Z,16.88
2023-10-10T22:51:14.060Z,14.30
2023-10-10T22:53:43.197Z,13.88
2023-10-10T22:56:13.190Z,15.90
2023-10-10T22:58:43.517Z,10.93
2023-10-10T23:01:15.988Z,12.40
2023-10-10T23:03:46.597Z,13.70
2023-10-10T23:06:15.111Z,9.88
2023-10-10T23:08:44.082Z,10.57
2023-10-10T23:11:14.713Z,9.00
2023-10-10T23:13:43.320Z,10.23
2023-10-10T23:16:18.087Z,9.13
2023-10-10T23:18:46.926Z,11.52
2023-10-10T23:21:15.544Z,11.35
2023-10-10T23:23:43.716Z,13.07
2023-10-10T23:26:13.652Z,11.27
2023-10-10T23:28:41.801Z,12.35
2023-10-10T23:31:09.979Z,9.82
2023-10-10T23:33:38.762Z,9.70
2023-10-10T23:36:08.092Z,9.93
2023-10-10T23:38:36.811Z,11.43
2023-10-10T23:41:05.706Z,20.95
2023-10-10T23:43:38.283Z,11.88
2023-10-10T23:46:07.802Z,17.05
2023-10-10T23:48:37.010Z,14.90
2023-10-10T23:51:08.255Z,9.77
2023-10-10T23:53:38.312Z,14.27
2023-10-10T23:56:09.070Z,12.48
2023-10-10T23:58:38.641Z,12.13
